Terminal Aerodrome Forecast
Issued by NWS Louisville, KY

Home | Current Version | Previous Version | Text Only | Print | Product List | Glossary On
Versions: 1 2 3 4 5 6 7 8 9 10 11 12 13 14 15 16
000
FTUS43 KLMK 230540
TAFSDF
TAF
KSDF 230540Z 2306/2412 09010KT P6SM OVC100
     FM230900 09008KT 6SM -RA OVC060
     FM231400 10012KT 6SM -RA OVC025
     FM231600 10011KT 6SM -RA OVC015
     FM232100 09011KT P6SM VCSH OVC025
     FM232300 09009KT P6SM -RA OVC035
     FM240900 08006KT P6SM -RA BKN015=

USA.gov is the U.S. government's official web portal to all federal, state and local government web resources and services.